sensor_id;sensor_type;location;lat;lon;timestamp;P1;durP1;ratioP1;P2;durP2;ratioP2
13250;SDS011;6692;50.710;7.180;2022-10-16T00:01:55;167.37;;;161.63;;
13250;SDS011;6692;50.710;7.180;2022-10-16T00:03:57;170.97;;;165.07;;
13250;SDS011;6692;50.710;7.180;2022-10-16T00:05:58;158.83;;;153.27;;
13250;SDS011;6692;50.710;7.180;2022-10-16T00:07:57;142.37;;;137.40;;
13250;SDS011;6692;50.710;7.180;2022-10-16T00:09:58;156.10;;;150.60;;
13250;SDS011;6692;50.710;7.180;2022-10-16T00:11:58;164.73;;;158.90;;
13250;SDS011;6692;50.710;7.180;2022-10-16T00:14:00;159.23;;;153.70;;
13250;SDS011;6692;50.710;7.180;2022-10-16T00:16:00;148.93;;;143.83;;
13250;SDS011;6692;50.710;7.180;2022-10-16T00:18:02;153.97;;;148.63;;
13250;SDS011;6692;50.710;7.180;2022-10-16T00:20:02;157.73;;;152.23;;
13250;SDS011;6692;50.710;7.180;2022-10-16T00:22:03;149.57;;;144.33;;
13250;SDS011;6692;50.710;7.180;2022-10-16T00:24:05;159.83;;;154.23;;
13250;SDS011;6692;50.710;7.180;2022-10-16T00:26:06;165.93;;;160.23;;
13250;SDS011;6692;50.710;7.180;2022-10-16T00:28:05;152.40;;;147.13;;
13250;SDS011;6692;50.710;7.180;2022-10-16T00:30:07;152.73;;;147.50;;
13250;SDS011;6692;50.710;7.180;2022-10-16T00:32:08;146.60;;;141.47;;
13250;SDS011;6692;50.710;7.180;2022-10-16T00:34:09;142.37;;;137.43;;
13250;SDS011;6692;50.710;7.180;2022-10-16T00:36:11;133.07;;;128.43;;
13250;SDS011;6692;50.710;7.180;2022-10-16T00:38:11;142.47;;;137.50;;
13250;SDS011;6692;50.710;7.180;2022-10-16T00:40:13;143.47;;;138.47;;
13250;SDS011;6692;50.710;7.180;2022-10-16T00:42:15;142.20;;;137.30;;
13250;SDS011;6692;50.710;7.180;2022-10-16T00:46:31;117.90;;;113.77;;
13250;SDS011;6692;50.710;7.180;2022-10-16T00:48:30;117.40;;;113.30;;
13250;SDS011;6692;50.710;7.180;2022-10-16T00:50:31;124.00;;;119.67;;
13250;SDS011;6692;50.710;7.180;2022-10-16T00:52:31;132.07;;;127.40;;
13250;SDS011;6692;50.710;7.180;2022-10-16T00:54:32;140.90;;;136.00;;
13250;SDS011;6692;50.710;7.180;2022-10-16T00:56:32;129.87;;;125.23;;
13250;SDS011;6692;50.710;7.180;2022-10-16T00:58:33;129.53;;;125.03;;
13250;SDS011;6692;50.710;7.180;2022-10-16T01:00:33;137.33;;;132.53;;
13250;SDS011;6692;50.710;7.180;2022-10-16T01:02:34;131.87;;;127.20;;
13250;SDS011;6692;50.710;7.180;2022-10-16T01:04:36;135.77;;;130.77;;
13250;SDS011;6692;50.710;7.180;2022-10-16T01:06:45;127.13;;;122.73;;
13250;SDS011;6692;50.710;7.180;2022-10-16T01:08:47;128.27;;;123.67;;
13250;SDS011;6692;50.710;7.180;2022-10-16T01:13:09;129.27;;;124.80;;
13250;SDS011;6692;50.710;7.180;2022-10-16T01:15:10;121.97;;;117.73;;
13250;SDS011;6692;50.710;7.180;2022-10-16T01:17:12;133.10;;;128.50;;
13250;SDS011;6692;50.710;7.180;2022-10-16T01:19:14;133.03;;;128.40;;
13250;SDS011;6692;50.710;7.180;2022-10-16T01:21:16;132.90;;;128.30;;
13250;SDS011;6692;50.710;7.180;2022-10-16T01:23:29;140.80;;;136.00;;
13250;SDS011;6692;50.710;7.180;2022-10-16T01:27:52;112.00;;;108.13;;
13250;SDS011;6692;50.710;7.180;2022-10-16T01:29:58;132.40;;;127.83;;
13250;SDS011;6692;50.710;7.180;2022-10-16T01:31:58;117.80;;;113.60;;
13250;SDS011;6692;50.710;7.180;2022-10-16T01:34:00;125.70;;;121.30;;
13250;SDS011;6692;50.710;7.180;2022-10-16T01:36:02;129.30;;;124.87;;
13250;SDS011;6692;50.710;7.180;2022-10-16T01:38:06;124.33;;;120.00;;
13250;SDS011;6692;50.710;7.180;2022-10-16T01:40:06;130.07;;;125.60;;
13250;SDS011;6692;50.710;7.180;2022-10-16T01:42:09;120.97;;;116.57;;
13250;SDS011;6692;50.710;7.180;2022-10-16T01:44:11;111.83;;;107.93;;
13250;SDS011;6692;50.710;7.180;2022-10-16T01:46:11;110.47;;;106.67;;
13250;SDS011;6692;50.710;7.180;2022-10-16T01:48:12;114.27;;;110.27;;
13250;SDS011;6692;50.710;7.180;2022-10-16T01:50:12;108.63;;;104.83;;
13250;SDS011;6692;50.710;7.180;2022-10-16T01:52:14;99.90;;;96.30;;
13250;SDS011;6692;50.710;7.180;2022-10-16T01:54:14;105.70;;;102.00;;
13250;SDS011;6692;50.710;7.180;2022-10-16T01:56:14;101.53;;;97.83;;
13250;SDS011;6692;50.710;7.180;2022-10-16T01:58:15;106.87;;;103.17;;
13250;SDS011;6692;50.710;7.180;2022-10-16T02:00:16;102.87;;;99.20;;
13250;SDS011;6692;50.710;7.180;2022-10-16T02:02:17;102.87;;;99.20;;
13250;SDS011;6692;50.710;7.180;2022-10-16T02:04:19;120.07;;;115.93;;
13250;SDS011;6692;50.710;7.180;2022-10-16T02:06:20;108.87;;;105.00;;
13250;SDS011;6692;50.710;7.180;2022-10-16T02:08:22;117.97;;;113.87;;
13250;SDS011;6692;50.710;7.180;2022-10-16T02:10:23;119.80;;;115.60;;
13250;SDS011;6692;50.710;7.180;2022-10-16T02:12:25;129.63;;;125.20;;
13250;SDS011;6692;50.710;7.180;2022-10-16T02:14:24;128.47;;;123.97;;
13250;SDS011;6692;50.710;7.180;2022-10-16T02:16:32;130.70;;;126.20;;
13250;SDS011;6692;50.710;7.180;2022-10-16T02:18:34;129.00;;;124.53;;
13250;SDS011;6692;50.710;7.180;2022-10-16T02:20:57;136.43;;;131.70;;
13250;SDS011;6692;50.710;7.180;2022-10-16T02:22:57;118.33;;;114.20;;
13250;SDS011;6692;50.710;7.180;2022-10-16T02:24:58;140.70;;;135.83;;
13250;SDS011;6692;50.710;7.180;2022-10-16T02:27:11;131.27;;;126.67;;
13250;SDS011;6692;50.710;7.180;2022-10-16T02:29:27;124.07;;;119.80;;
13250;SDS011;6692;50.710;7.180;2022-10-16T02:31:28;139.93;;;135.10;;
13250;SDS011;6692;50.710;7.180;2022-10-16T02:33:29;153.40;;;148.17;;
13250;SDS011;6692;50.710;7.180;2022-10-16T02:35:29;141.53;;;136.67;;
13250;SDS011;6692;50.710;7.180;2022-10-16T02:37:30;154.20;;;148.97;;
13250;SDS011;6692;50.710;7.180;2022-10-16T02:39:31;156.07;;;150.70;;
13250;SDS011;6692;50.710;7.180;2022-10-16T02:41:31;159.27;;;153.87;;
13250;SDS011;6692;50.710;7.180;2022-10-16T02:43:32;150.87;;;145.73;;
13250;SDS011;6692;50.710;7.180;2022-10-16T02:45:33;157.87;;;152.47;;
13250;SDS011;6692;50.710;7.180;2022-10-16T02:47:33;159.60;;;154.13;;
13250;SDS011;6692;50.710;7.180;2022-10-16T02:49:34;169.73;;;163.97;;
13250;SDS011;6692;50.710;7.180;2022-10-16T02:51:35;165.70;;;160.10;;
13250;SDS011;6692;50.710;7.180;2022-10-16T02:53:36;159.47;;;153.97;;
13250;SDS011;6692;50.710;7.180;2022-10-16T02:55:36;151.40;;;146.20;;
13250;SDS011;6692;50.710;7.180;2022-10-16T02:57:38;144.37;;;139.40;;
13250;SDS011;6692;50.710;7.180;2022-10-16T02:59:39;142.67;;;137.77;;
13250;SDS011;6692;50.710;7.180;2022-10-16T03:01:39;135.13;;;130.50;;
13250;SDS011;6692;50.710;7.180;2022-10-16T03:03:40;133.13;;;128.57;;
13250;SDS011;6692;50.710;7.180;2022-10-16T03:05:42;151.37;;;146.17;;
13250;SDS011;6692;50.710;7.180;2022-10-16T03:07:41;137.33;;;132.63;;
13250;SDS011;6692;50.710;7.180;2022-10-16T03:09:42;137.07;;;132.37;;
13250;SDS011;6692;50.710;7.180;2022-10-16T03:11:44;133.40;;;128.80;;
13250;SDS011;6692;50.710;7.180;2022-10-16T03:13:45;136.73;;;132.07;;
13250;SDS011;6692;50.710;7.180;2022-10-16T03:15:46;137.73;;;132.97;;
13250;SDS011;6692;50.710;7.180;2022-10-16T03:17:47;130.80;;;126.27;;
13250;SDS011;6692;50.710;7.180;2022-10-16T03:19:48;124.73;;;120.33;;
13250;SDS011;6692;50.710;7.180;2022-10-16T03:21:49;137.70;;;133.00;;
13250;SDS011;6692;50.710;7.180;2022-10-16T03:23:50;128.33;;;123.90;;
13250;SDS011;6692;50.710;7.180;2022-10-16T03:25:51;136.30;;;131.63;;
13250;SDS011;6692;50.710;7.180;2022-10-16T03:27:52;144.13;;;139.23;;
13250;SDS011;6692;50.710;7.180;2022-10-16T03:29:53;144.23;;;139.30;;
13250;SDS011;6692;50.710;7.180;2022-10-16T03:31:54;147.57;;;142.40;;
13250;SDS011;6692;50.710;7.180;2022-10-16T03:33:55;136.87;;;132.13;;
13250;SDS011;6692;50.710;7.180;2022-10-16T03:35:56;149.53;;;144.47;;
13250;SDS011;6692;50.710;7.180;2022-10-16T03:37:57;151.67;;;146.47;;
13250;SDS011;6692;50.710;7.180;2022-10-16T03:39:58;156.60;;;151.27;;
13250;SDS011;6692;50.710;7.180;2022-10-16T03:41:59;155.87;;;150.57;;
13250;SDS011;6692;50.710;7.180;2022-10-16T03:44:00;147.23;;;142.17;;
13250;SDS011;6692;50.710;7.180;2022-10-16T03:46:01;140.70;;;135.93;;
13250;SDS011;6692;50.710;7.180;2022-10-16T03:48:02;150.80;;;145.70;;
13250;SDS011;6692;50.710;7.180;2022-10-16T03:50:03;147.33;;;142.30;;
13250;SDS011;6692;50.710;7.180;2022-10-16T03:52:04;148.40;;;143.30;;
13250;SDS011;6692;50.710;7.180;2022-10-16T03:54:05;159.33;;;153.93;;
13250;SDS011;6692;50.710;7.180;2022-10-16T03:56:06;153.80;;;148.50;;
13250;SDS011;6692;50.710;7.180;2022-10-16T03:58:06;148.67;;;143.63;;
13250;SDS011;6692;50.710;7.180;2022-10-16T04:00:07;158.40;;;153.00;;
13250;SDS011;6692;50.710;7.180;2022-10-16T04:02:09;151.07;;;145.97;;
13250;SDS011;6692;50.710;7.180;2022-10-16T04:04:10;165.87;;;160.20;;
13250;SDS011;6692;50.710;7.180;2022-10-16T04:06:12;154.50;;;149.10;;
13250;SDS011;6692;50.710;7.180;2022-10-16T04:08:13;148.23;;;143.17;;
13250;SDS011;6692;50.710;7.180;2022-10-16T04:10:14;166.57;;;160.87;;
13250;SDS011;6692;50.710;7.180;2022-10-16T04:12:15;156.80;;;151.47;;
13250;SDS011;6692;50.710;7.180;2022-10-16T04:14:17;164.30;;;158.67;;
13250;SDS011;6692;50.710;7.180;2022-10-16T04:16:17;148.20;;;143.07;;
13250;SDS011;6692;50.710;7.180;2022-10-16T04:18:19;136.73;;;131.80;;
13250;SDS011;6692;50.710;7.180;2022-10-16T04:20:19;142.07;;;137.20;;
13250;SDS011;6692;50.710;7.180;2022-10-16T04:22:20;158.90;;;153.43;;
13250;SDS011;6692;50.710;7.180;2022-10-16T04:24:21;167.47;;;161.83;;
13250;SDS011;6692;50.710;7.180;2022-10-16T04:26:22;169.67;;;163.90;;
13250;SDS011;6692;50.710;7.180;2022-10-16T04:28:23;175.20;;;169.27;;
13250;SDS011;6692;50.710;7.180;2022-10-16T04:30:24;157.37;;;152.00;;
13250;SDS011;6692;50.710;7.180;2022-10-16T04:32:25;153.40;;;148.10;;
13250;SDS011;6692;50.710;7.180;2022-10-16T04:34:25;156.47;;;151.13;;
13250;SDS011;6692;50.710;7.180;2022-10-16T04:36:26;162.37;;;156.83;;
13250;SDS011;6692;50.710;7.180;2022-10-16T04:38:27;166.40;;;160.70;;
13250;SDS011;6692;50.710;7.180;2022-10-16T04:40:28;177.67;;;171.57;;
13250;SDS011;6692;50.710;7.180;2022-10-16T04:42:28;175.23;;;169.30;;
13250;SDS011;6692;50.710;7.180;2022-10-16T04:44:29;173.53;;;167.67;;
13250;SDS011;6692;50.710;7.180;2022-10-16T04:46:30;165.67;;;160.03;;
13250;SDS011;6692;50.710;7.180;2022-10-16T04:48:31;164.27;;;158.70;;
13250;SDS011;6692;50.710;7.180;2022-10-16T04:50:31;176.37;;;170.37;;
13250;SDS011;6692;50.710;7.180;2022-10-16T04:52:31;170.23;;;164.47;;
13250;SDS011;6692;50.710;7.180;2022-10-16T04:54:32;159.43;;;153.93;;
13250;SDS011;6692;50.710;7.180;2022-10-16T04:56:33;163.30;;;157.77;;
13250;SDS011;6692;50.710;7.180;2022-10-16T04:58:34;174.53;;;168.47;;
13250;SDS011;6692;50.710;7.180;2022-10-16T05:00:36;171.67;;;165.90;;
13250;SDS011;6692;50.710;7.180;2022-10-16T05:02:36;159.33;;;153.90;;
13250;SDS011;6692;50.710;7.180;2022-10-16T05:04:37;156.07;;;150.73;;
13250;SDS011;6692;50.710;7.180;2022-10-16T05:06:38;142.67;;;137.77;;
13250;SDS011;6692;50.710;7.180;2022-10-16T05:08:39;150.70;;;145.47;;
13250;SDS011;6692;50.710;7.180;2022-10-16T05:10:41;167.83;;;162.13;;
13250;SDS011;6692;50.710;7.180;2022-10-16T05:12:41;166.47;;;160.77;;
13250;SDS011;6692;50.710;7.180;2022-10-16T05:14:42;161.43;;;155.93;;
13250;SDS011;6692;50.710;7.180;2022-10-16T05:16:43;159.20;;;153.77;;
13250;SDS011;6692;50.710;7.180;2022-10-16T05:18:44;158.07;;;152.63;;
13250;SDS011;6692;50.710;7.180;2022-10-16T05:20:45;171.70;;;165.73;;
13250;SDS011;6692;50.710;7.180;2022-10-16T05:22:46;163.67;;;158.03;;
13250;SDS011;6692;50.710;7.180;2022-10-16T05:24:47;176.60;;;170.60;;
13250;SDS011;6692;50.710;7.180;2022-10-16T05:26:49;167.33;;;161.53;;
13250;SDS011;6692;50.710;7.180;2022-10-16T05:28:49;178.70;;;172.63;;
13250;SDS011;6692;50.710;7.180;2022-10-16T05:30:50;188.83;;;182.50;;
13250;SDS011;6692;50.710;7.180;2022-10-16T05:32:51;179.13;;;173.10;;
13250;SDS011;6692;50.710;7.180;2022-10-16T05:34:51;181.50;;;175.40;;
13250;SDS011;6692;50.710;7.180;2022-10-16T05:36:52;190.17;;;183.83;;
13250;SDS011;6692;50.710;7.180;2022-10-16T05:38:53;189.03;;;182.60;;
13250;SDS011;6692;50.710;7.180;2022-10-16T05:40:53;198.47;;;191.77;;
13250;SDS011;6692;50.710;7.180;2022-10-16T05:42:55;190.83;;;184.40;;
13250;SDS011;6692;50.710;7.180;2022-10-16T05:44:55;185.43;;;179.07;;
13250;SDS011;6692;50.710;7.180;2022-10-16T05:46:57;183.57;;;177.37;;
13250;SDS011;6692;50.710;7.180;2022-10-16T05:48:57;189.60;;;183.17;;
13250;SDS011;6692;50.710;7.180;2022-10-16T05:51:00;183.80;;;177.53;;
13250;SDS011;6692;50.710;7.180;2022-10-16T05:53:02;189.33;;;182.93;;
13250;SDS011;6692;50.710;7.180;2022-10-16T05:55:03;186.37;;;180.07;;
13250;SDS011;6692;50.710;7.180;2022-10-16T05:57:05;181.93;;;175.77;;
13250;SDS011;6692;50.710;7.180;2022-10-16T05:59:06;180.47;;;174.33;;
13250;SDS011;6692;50.710;7.180;2022-10-16T06:01:11;179.77;;;173.73;;
13250;SDS011;6692;50.710;7.180;2022-10-16T06:03:10;182.40;;;176.17;;
13250;SDS011;6692;50.710;7.180;2022-10-16T06:05:11;198.50;;;191.80;;
13250;SDS011;6692;50.710;7.180;2022-10-16T06:07:12;210.53;;;203.47;;
13250;SDS011;6692;50.710;7.180;2022-10-16T06:09:12;208.20;;;201.20;;
13250;SDS011;6692;50.710;7.180;2022-10-16T06:11:15;213.13;;;205.97;;
13250;SDS011;6692;50.710;7.180;2022-10-16T06:13:15;222.10;;;214.60;;
13250;SDS011;6692;50.710;7.180;2022-10-16T06:15:15;215.93;;;208.67;;
13250;SDS011;6692;50.710;7.180;2022-10-16T06:17:16;183.37;;;177.17;;
13250;SDS011;6692;50.710;7.180;2022-10-16T06:19:17;192.33;;;185.80;;
13250;SDS011;6692;50.710;7.180;2022-10-16T06:21:18;177.27;;;171.17;;
13250;SDS011;6692;50.710;7.180;2022-10-16T06:23:18;175.67;;;169.70;;
13250;SDS011;6692;50.710;7.180;2022-10-16T06:25:19;186.93;;;180.67;;
13250;SDS011;6692;50.710;7.180;2022-10-16T06:27:19;192.13;;;185.57;;
13250;SDS011;6692;50.710;7.180;2022-10-16T06:29:20;207.20;;;200.30;;
13250;SDS011;6692;50.710;7.180;2022-10-16T06:31:22;203.07;;;196.23;;
13250;SDS011;6692;50.710;7.180;2022-10-16T06:33:22;207.57;;;200.57;;
13250;SDS011;6692;50.710;7.180;2022-10-16T06:35:23;207.83;;;200.83;;
13250;SDS011;6692;50.710;7.180;2022-10-16T06:37:23;238.10;;;229.97;;
13250;SDS011;6692;50.710;7.180;2022-10-16T06:39:25;238.00;;;230.00;;
13250;SDS011;6692;50.710;7.180;2022-10-16T06:41:26;235.33;;;227.37;;
13250;SDS011;6692;50.710;7.180;2022-10-16T06:43:28;223.93;;;216.40;;
13250;SDS011;6692;50.710;7.180;2022-10-16T06:45:27;232.47;;;224.63;;
13250;SDS011;6692;50.710;7.180;2022-10-16T06:47:27;225.17;;;217.63;;
13250;SDS011;6692;50.710;7.180;2022-10-16T06:49:28;224.57;;;217.03;;
13250;SDS011;6692;50.710;7.180;2022-10-16T06:51:29;244.23;;;236.07;;
13250;SDS011;6692;50.710;7.180;2022-10-16T06:53:30;242.33;;;234.17;;
13250;SDS011;6692;50.710;7.180;2022-10-16T06:55:30;244.87;;;236.60;;
13250;SDS011;6692;50.710;7.180;2022-10-16T06:57:31;257.53;;;248.73;;
13250;SDS011;6692;50.710;7.180;2022-10-16T06:59:31;258.20;;;249.50;;
13250;SDS011;6692;50.710;7.180;2022-10-16T07:01:32;261.27;;;252.47;;
13250;SDS011;6692;50.710;7.180;2022-10-16T07:03:33;265.20;;;256.27;;
13250;SDS011;6692;50.710;7.180;2022-10-16T07:05:39;235.33;;;227.47;;
13250;SDS011;6692;50.710;7.180;2022-10-16T07:07:39;255.27;;;246.80;;
13250;SDS011;6692;50.710;7.180;2022-10-16T07:09:40;263.20;;;254.37;;
13250;SDS011;6692;50.710;7.180;2022-10-16T07:11:40;259.00;;;250.33;;
13250;SDS011;6692;50.710;7.180;2022-10-16T07:13:41;202.50;;;195.67;;
13250;SDS011;6692;50.710;7.180;2022-10-16T07:15:41;211.77;;;204.70;;
13250;SDS011;6692;50.710;7.180;2022-10-16T07:17:42;217.37;;;209.77;;
13250;SDS011;6692;50.710;7.180;2022-10-16T07:19:44;231.03;;;223.30;;
13250;SDS011;6692;50.710;7.180;2022-10-16T07:21:45;216.73;;;209.47;;
13250;SDS011;6692;50.710;7.180;2022-10-16T07:23:51;243.97;;;235.70;;
13250;SDS011;6692;50.710;7.180;2022-10-16T07:25:53;260.73;;;251.90;;
13250;SDS011;6692;50.710;7.180;2022-10-16T07:27:54;262.97;;;253.97;;
13250;SDS011;6692;50.710;7.180;2022-10-16T07:29:55;283.60;;;273.97;;
13250;SDS011;6692;50.710;7.180;2022-10-16T07:31:55;295.43;;;285.20;;
13250;SDS011;6692;50.710;7.180;2022-10-16T07:33:57;291.07;;;281.20;;
13250;SDS011;6692;50.710;7.180;2022-10-16T07:35:57;318.33;;;307.27;;
13250;SDS011;6692;50.710;7.180;2022-10-16T07:37:59;304.30;;;293.87;;
13250;SDS011;6692;50.710;7.180;2022-10-16T07:40:00;304.83;;;294.50;;
13250;SDS011;6692;50.710;7.180;2022-10-16T07:42:00;290.07;;;280.23;;
13250;SDS011;6692;50.710;7.180;2022-10-16T07:44:01;273.57;;;264.40;;
13250;SDS011;6692;50.710;7.180;2022-10-16T07:46:02;274.80;;;265.50;;
13250;SDS011;6692;50.710;7.180;2022-10-16T07:48:03;267.90;;;258.83;;
13250;SDS011;6692;50.710;7.180;2022-10-16T07:50:04;286.27;;;276.63;;
13250;SDS011;6692;50.710;7.180;2022-10-16T07:52:05;286.23;;;276.43;;
13250;SDS011;6692;50.710;7.180;2022-10-16T07:54:07;297.27;;;287.20;;
13250;SDS011;6692;50.710;7.180;2022-10-16T07:56:07;308.97;;;298.40;;
13250;SDS011;6692;50.710;7.180;2022-10-16T07:58:08;307.37;;;296.83;;
13250;SDS011;6692;50.710;7.180;2022-10-16T08:00:09;298.07;;;287.93;;
13250;SDS011;6692;50.710;7.180;2022-10-16T08:02:10;321.50;;;310.40;;
13250;SDS011;6692;50.710;7.180;2022-10-16T08:04:11;316.67;;;305.73;;
13250;SDS011;6692;50.710;7.180;2022-10-16T08:06:12;304.63;;;294.30;;
13250;SDS011;6692;50.710;7.180;2022-10-16T08:08:13;310.17;;;299.53;;
13250;SDS011;6692;50.710;7.180;2022-10-16T08:10:16;299.00;;;288.93;;
13250;SDS011;6692;50.710;7.180;2022-10-16T08:12:17;287.40;;;277.60;;
13250;SDS011;6692;50.710;7.180;2022-10-16T08:14:17;278.07;;;268.67;;
13250;SDS011;6692;50.710;7.180;2022-10-16T08:16:18;291.03;;;281.17;;
13250;SDS011;6692;50.710;7.180;2022-10-16T08:18:20;274.73;;;265.43;;
13250;SDS011;6692;50.710;7.180;2022-10-16T08:20:20;264.97;;;256.00;;
13250;SDS011;6692;50.710;7.180;2022-10-16T08:22:21;269.10;;;260.07;;
13250;SDS011;6692;50.710;7.180;2022-10-16T08:24:22;253.73;;;245.27;;
13250;SDS011;6692;50.710;7.180;2022-10-16T08:26:22;252.77;;;244.30;;
13250;SDS011;6692;50.710;7.180;2022-10-16T08:28:23;228.03;;;220.37;;
13250;SDS011;6692;50.710;7.180;2022-10-16T08:30:24;251.73;;;243.30;;
13250;SDS011;6692;50.710;7.180;2022-10-16T08:32:25;243.67;;;235.47;;
13250;SDS011;6692;50.710;7.180;2022-10-16T08:34:26;250.00;;;241.60;;
13250;SDS011;6692;50.710;7.180;2022-10-16T08:36:27;241.57;;;233.50;;
13250;SDS011;6692;50.710;7.180;2022-10-16T08:38:27;234.57;;;226.67;;
13250;SDS011;6692;50.710;7.180;2022-10-16T08:40:29;231.30;;;223.50;;
13250;SDS011;6692;50.710;7.180;2022-10-16T08:42:35;235.07;;;227.17;;
13250;SDS011;6692;50.710;7.180;2022-10-16T08:44:57;223.13;;;215.63;;
13250;SDS011;6692;50.710;7.180;2022-10-16T08:46:59;265.50;;;256.50;;
13250;SDS011;6692;50.710;7.180;2022-10-16T08:48:58;250.27;;;241.87;;
13250;SDS011;6692;50.710;7.180;2022-10-16T08:51:00;297.93;;;287.77;;
13250;SDS011;6692;50.710;7.180;2022-10-16T08:52:59;285.13;;;275.40;;
13250;SDS011;6692;50.710;7.180;2022-10-16T08:55:01;260.63;;;251.87;;
13250;SDS011;6692;50.710;7.180;2022-10-16T08:57:09;327.53;;;316.07;;
13250;SDS011;6692;50.710;7.180;2022-10-16T08:59:23;295.83;;;285.70;;
13250;SDS011;6692;50.710;7.180;2022-10-16T09:01:25;301.10;;;290.83;;
13250;SDS011;6692;50.710;7.180;2022-10-16T09:04:38;344.83;;;332.83;;
13250;SDS011;6692;50.710;7.180;2022-10-16T09:06:00;294.50;;;284.40;;
13250;SDS011;6692;50.710;7.180;2022-10-16T09:12:39;334.40;;;322.73;;
13250;SDS011;6692;50.710;7.180;2022-10-16T09:15:48;317.00;;;306.07;;
13250;SDS011;6692;50.710;7.180;2022-10-16T09:17:00;342.27;;;330.30;;
13250;SDS011;6692;50.710;7.180;2022-10-16T09:19:03;299.60;;;289.37;;
13250;SDS011;6692;50.710;7.180;2022-10-16T09:21:09;302.80;;;292.27;;
13250;SDS011;6692;50.710;7.180;2022-10-16T09:23:12;320.97;;;309.83;;
13250;SDS011;6692;50.710;7.180;2022-10-16T09:25:14;285.13;;;275.37;;
13250;SDS011;6692;50.710;7.180;2022-10-16T09:27:14;285.80;;;276.07;;
13250;SDS011;6692;50.710;7.180;2022-10-16T09:29:15;275.83;;;266.47;;
13250;SDS011;6692;50.710;7.180;2022-10-16T09:31:18;285.17;;;275.53;;
13250;SDS011;6692;50.710;7.180;2022-10-16T09:33:19;309.77;;;299.00;;
13250;SDS011;6692;50.710;7.180;2022-10-16T09:35:19;335.23;;;323.47;;
13250;SDS011;6692;50.710;7.180;2022-10-16T09:37:21;292.93;;;282.87;;
13250;SDS011;6692;50.710;7.180;2022-10-16T09:39:21;293.97;;;283.97;;
13250;SDS011;6692;50.710;7.180;2022-10-16T09:41:22;296.33;;;286.30;;
13250;SDS011;6692;50.710;7.180;2022-10-16T09:43:26;304.17;;;293.67;;
13250;SDS011;6692;50.710;7.180;2022-10-16T09:45:26;278.53;;;268.93;;
13250;SDS011;6692;50.710;7.180;2022-10-16T09:47:27;295.47;;;285.20;;
13250;SDS011;6692;50.710;7.180;2022-10-16T09:49:28;274.93;;;265.70;;
13250;SDS011;6692;50.710;7.180;2022-10-16T09:51:30;274.70;;;265.27;;
13250;SDS011;6692;50.710;7.180;2022-10-16T09:53:37;281.93;;;272.33;;
13250;SDS011;6692;50.710;7.180;2022-10-16T09:57:50;255.43;;;246.73;;
13250;SDS011;6692;50.710;7.180;2022-10-16T09:59:52;255.57;;;246.97;;
13250;SDS011;6692;50.710;7.180;2022-10-16T10:01:52;259.20;;;250.47;;
13250;SDS011;6692;50.710;7.180;2022-10-16T10:03:55;238.03;;;230.10;;
13250;SDS011;6692;50.710;7.180;2022-10-16T10:05:53;202.47;;;195.57;;
13250;SDS011;6692;50.710;7.180;2022-10-16T10:07:56;265.60;;;256.57;;
13250;SDS011;6692;50.710;7.180;2022-10-16T10:09:56;268.27;;;259.17;;
13250;SDS011;6692;50.710;7.180;2022-10-16T10:11:57;275.17;;;265.77;;
13250;SDS011;6692;50.710;7.180;2022-10-16T10:14:15;278.27;;;268.83;;
13250;SDS011;6692;50.710;7.180;2022-10-16T10:16:23;271.23;;;262.20;;
13250;SDS011;6692;50.710;7.180;2022-10-16T10:18:24;245.77;;;237.60;;
13250;SDS011;6692;50.710;7.180;2022-10-16T10:20:30;267.33;;;258.27;;
13250;SDS011;6692;50.710;7.180;2022-10-16T10:22:32;254.10;;;245.60;;
13250;SDS011;6692;50.710;7.180;2022-10-16T10:24:37;248.93;;;240.60;;
13250;SDS011;6692;50.710;7.180;2022-10-16T10:26:38;277.70;;;268.23;;
13250;SDS011;6692;50.710;7.180;2022-10-16T10:28:45;247.13;;;238.80;;
13250;SDS011;6692;50.710;7.180;2022-10-16T10:30:54;240.63;;;232.40;;
13250;SDS011;6692;50.710;7.180;2022-10-16T10:34:12;209.87;;;202.83;;
13250;SDS011;6692;50.710;7.180;2022-10-16T10:35:22;240.43;;;232.33;;
13250;SDS011;6692;50.710;7.180;2022-10-16T10:37:29;282.93;;;273.27;;
13250;SDS011;6692;50.710;7.180;2022-10-16T10:39:29;287.20;;;277.27;;
13250;SDS011;6692;50.710;7.180;2022-10-16T10:41:39;289.67;;;279.70;;
13250;SDS011;6692;50.710;7.180;2022-10-16T10:46:32;176.50;;;170.47;;
13250;SDS011;6692;50.710;7.180;2022-10-16T10:48:40;235.43;;;227.43;;
13250;SDS011;6692;50.710;7.180;2022-10-16T10:50:45;286.10;;;276.30;;
13250;SDS011;6692;50.710;7.180;2022-10-16T10:52:58;269.00;;;259.83;;
13250;SDS011;6692;50.710;7.180;2022-10-16T10:57:25;264.83;;;255.80;;
13250;SDS011;6692;50.710;7.180;2022-10-16T10:59:42;271.67;;;262.53;;
13250;SDS011;6692;50.710;7.180;2022-10-16T11:02:00;256.33;;;247.73;;
13250;SDS011;6692;50.710;7.180;2022-10-16T11:04:22;201.07;;;194.30;;
13250;SDS011;6692;50.710;7.180;2022-10-16T11:06:25;261.37;;;252.53;;
13250;SDS011;6692;50.710;7.180;2022-10-16T11:08:34;304.47;;;294.03;;
13250;SDS011;6692;50.710;7.180;2022-10-16T11:10:44;242.43;;;234.23;;
13250;SDS011;6692;50.710;7.180;2022-10-16T11:12:47;277.17;;;267.77;;
13250;SDS011;6692;50.710;7.180;2022-10-16T11:14:54;291.67;;;281.67;;
13250;SDS011;6692;50.710;7.180;2022-10-16T11:16:56;117.87;;;113.83;;
13250;SDS011;6692;50.710;7.180;2022-10-16T11:19:03;170.83;;;164.93;;
13250;SDS011;6692;50.710;7.180;2022-10-16T11:21:04;247.03;;;238.63;;
13250;SDS011;6692;50.710;7.180;2022-10-16T11:23:06;300.57;;;290.30;;
13250;SDS011;6692;50.710;7.180;2022-10-16T11:27:16;297.13;;;286.97;;
13250;SDS011;6692;50.710;7.180;2022-10-16T11:29:19;270.33;;;261.17;;
13250;SDS011;6692;50.710;7.180;2022-10-16T11:31:30;210.73;;;203.53;;
13250;SDS011;6692;50.710;7.180;2022-10-16T11:33:38;233.43;;;225.57;;
13250;SDS011;6692;50.710;7.180;2022-10-16T11:35:50;210.10;;;203.00;;
13250;SDS011;6692;50.710;7.180;2022-10-16T11:37:49;256.33;;;247.53;;
13250;SDS011;6692;50.710;7.180;2022-10-16T11:39:50;183.13;;;176.93;;
13250;SDS011;6692;50.710;7.180;2022-10-16T11:41:51;134.60;;;129.93;;
13250;SDS011;6692;50.710;7.180;2022-10-16T11:44:14;176.90;;;170.83;;
13250;SDS011;6692;50.710;7.180;2022-10-16T11:46:17;249.23;;;240.77;;
13250;SDS011;6692;50.710;7.180;2022-10-16T11:48:20;285.83;;;276.10;;
13250;SDS011;6692;50.710;7.180;2022-10-16T11:50:56;295.63;;;285.50;;
13250;SDS011;6692;50.710;7.180;2022-10-16T11:52:48;325.17;;;313.77;;
13250;SDS011;6692;50.710;7.180;2022-10-16T11:54:47;345.87;;;333.70;;
13250;SDS011;6692;50.710;7.180;2022-10-16T11:56:57;332.27;;;320.53;;
13250;SDS011;6692;50.710;7.180;2022-10-16T11:58:58;378.13;;;364.47;;
13250;SDS011;6692;50.710;7.180;2022-10-16T12:03:11;323.33;;;311.97;;
13250;SDS011;6692;50.710;7.180;2022-10-16T12:05:22;331.60;;;319.80;;
13250;SDS011;6692;50.710;7.180;2022-10-16T12:07:22;263.13;;;254.20;;
13250;SDS011;6692;50.710;7.180;2022-10-16T12:09:25;349.47;;;337.17;;